createdAt,value
2023-06-11T00:01:29.849Z,93.35
2023-06-11T00:03:16.964Z,93.65
2023-06-11T00:04:52.863Z,93.82
2023-06-11T00:06:26.479Z,94.25
2023-06-11T00:08:01.865Z,94.22
2023-06-11T00:09:35.827Z,94.08
2023-06-11T00:11:09.672Z,94.23
2023-06-11T00:12:43.304Z,94.57
2023-06-11T00:14:19.009Z,94.60
2023-06-11T00:15:53.518Z,94.64
2023-06-11T00:17:29.199Z,94.56
2023-06-11T00:19:06.538Z,94.84
2023-06-11T00:20:43.153Z,94.80
2023-06-11T00:22:16.871Z,94.69
2023-06-11T00:23:50.230Z,94.93
2023-06-11T00:25:23.501Z,94.99
2023-06-11T00:27:00.379Z,94.92
2023-06-11T00:28:34.712Z,95.00
2023-06-11T00:30:09.648Z,94.85
2023-06-11T00:31:55.395Z,94.95
2023-06-11T00:33:29.626Z,94.75
2023-06-11T00:35:06.039Z,94.82
2023-06-11T00:36:42.321Z,94.72
2023-06-11T00:38:20.698Z,94.68
2023-06-11T00:39:54.767Z,94.70
2023-06-11T00:41:30.317Z,94.63
2023-06-11T00:43:03.854Z,94.48
2023-06-11T00:44:40.009Z,94.45
2023-06-11T00:46:22.138Z,94.42
2023-06-11T00:47:55.703Z,94.82
2023-06-11T00:49:31.268Z,94.87
2023-06-11T00:51:04.715Z,94.75
2023-06-11T00:52:37.898Z,94.95
2023-06-11T00:54:12.911Z,94.75
2023-06-11T00:55:47.233Z,95.05
2023-06-11T00:57:21.048Z,95.09
2023-06-11T00:58:54.252Z,94.94
2023-06-11T01:00:28.462Z,94.94
2023-06-11T01:02:25.601Z,94.98
2023-06-11T01:04:23.359Z,94.79
2023-06-11T01:06:16.888Z,94.86
2023-06-11T01:07:53.377Z,95.05
2023-06-11T01:09:32.087Z,95.38
2023-06-11T01:11:23.821Z,95.52
2023-06-11T01:13:01.213Z,95.51
2023-06-11T01:14:39.819Z,95.74
2023-06-11T01:16:25.843Z,95.55
2023-06-11T01:18:11.980Z,95.43
2023-06-11T01:20:10.866Z,95.37
2023-06-11T01:21:55.199Z,95.36
2023-06-11T01:24:23.245Z,95.51
2023-06-11T01:26:38.333Z,95.53
2023-06-11T01:28:18.438Z,95.79
2023-06-11T01:29:56.688Z,95.69
2023-06-11T01:31:39.503Z,95.66
2023-06-11T01:33:18.821Z,95.83
2023-06-11T01:35:23.774Z,95.82
2023-06-11T01:37:03.863Z,95.92
2023-06-11T01:38:40.669Z,95.96
2023-06-11T01:40:16.422Z,95.75
2023-06-11T01:41:52.138Z,95.91
2023-06-11T01:43:43.848Z,96.19
2023-06-11T01:45:20.184Z,96.17
2023-06-11T01:46:53.641Z,96.08
2023-06-11T01:48:27.034Z,96.07
2023-06-11T01:50:03.061Z,95.91
2023-06-11T01:51:36.437Z,96.10
2023-06-11T01:53:12.630Z,96.09
2023-06-11T01:54:47.461Z,95.93
2023-06-11T01:56:20.932Z,96.18
2023-06-11T01:57:54.159Z,96.35
2023-06-11T01:59:27.622Z,96.62
2023-06-11T02:01:03.853Z,96.80
2023-06-11T02:02:46.106Z,96.82
2023-06-11T02:04:26.805Z,96.90
2023-06-11T02:06:02.163Z,96.98
2023-06-11T02:07:50.731Z,97.44
2023-06-11T02:09:28.317Z,97.39
2023-06-11T02:11:18.809Z,97.95
2023-06-11T02:12:52.226Z,97.98
2023-06-11T02:14:27.134Z,97.97
2023-06-11T02:16:02.375Z,98.07
2023-06-11T02:17:36.217Z,98.05
2023-06-11T02:19:09.650Z,98.46
2023-06-11T02:20:49.184Z,98.91
2023-06-11T02:22:25.234Z,98.66
2023-06-11T02:24:04.842Z,98.73
2023-06-11T02:25:41.586Z,98.50
2023-06-11T02:27:14.719Z,98.26
2023-06-11T02:28:48.360Z,98.05
2023-06-11T02:30:25.337Z,97.80
2023-06-11T02:32:00.867Z,97.47
2023-06-11T02:33:34.025Z,97.41
2023-06-11T02:35:09.053Z,97.38
2023-06-11T02:36:42.424Z,97.41
2023-06-11T02:38:15.886Z,97.37
2023-06-11T02:39:49.893Z,97.33
2023-06-11T02:41:24.409Z,97.39
2023-06-11T02:42:57.793Z,97.35
2023-06-11T02:44:34.685Z,97.31
2023-06-11T02:46:08.062Z,97.06
2023-06-11T02:47:42.632Z,97.21
2023-06-11T02:49:35.541Z,97.03
2023-06-11T02:51:08.892Z,97.12
2023-06-11T02:52:42.028Z,96.95
2023-06-11T02:54:18.611Z,96.61
2023-06-11T02:55:52.444Z,96.53
2023-06-11T02:57:25.958Z,96.42
2023-06-11T02:59:13.997Z,96.24
2023-06-11T03:00:57.848Z,96.25
2023-06-11T03:02:31.307Z,96.29
2023-06-11T03:04:07.480Z,96.34
2023-06-11T03:05:41.216Z,96.31
2023-06-11T03:07:16.868Z,96.35
2023-06-11T03:08:50.520Z,96.38
2023-06-11T03:10:23.683Z,96.46
2023-06-11T03:11:56.778Z,96.12
2023-06-11T03:13:32.663Z,96.10
2023-06-11T03:15:10.191Z,95.89
2023-06-11T03:16:45.263Z,95.90
2023-06-11T03:18:20.211Z,95.87
2023-06-11T03:19:54.862Z,95.86
2023-06-11T03:21:32.036Z,95.71
2023-06-11T03:23:08.075Z,95.78
2023-06-11T03:24:42.869Z,95.64
2023-06-11T03:26:22.996Z,95.60
2023-06-11T03:27:56.872Z,95.85
2023-06-11T03:29:35.631Z,95.76
2023-06-11T03:31:10.595Z,95.67
2023-06-11T03:32:48.041Z,95.57
2023-06-11T03:34:24.176Z,95.24
2023-06-11T03:36:11.950Z,95.29
2023-06-11T03:37:49.143Z,95.15
2023-06-11T03:39:25.096Z,95.02
2023-06-11T03:41:02.908Z,94.85
2023-06-11T03:42:38.843Z,94.93
2023-06-11T03:44:16.627Z,94.61
2023-06-11T03:45:55.927Z,94.67
2023-06-11T03:47:30.475Z,94.26
2023-06-11T03:49:09.315Z,94.25
2023-06-11T03:50:47.216Z,94.07
2023-06-11T03:52:27.058Z,93.67
2023-06-11T03:54:03.763Z,93.97
2023-06-11T03:55:37.578Z,93.64
2023-06-11T03:57:13.728Z,93.22
2023-06-11T03:58:51.703Z,93.25
2023-06-11T04:00:25.175Z,93.16
2023-06-11T04:02:02.512Z,92.96
2023-06-11T04:03:40.620Z,92.80
2023-06-11T04:05:16.943Z,92.50
2023-06-11T04:06:50.356Z,92.12
2023-06-11T04:08:23.636Z,92.06
2023-06-11T04:09:57.094Z,92.00
2023-06-11T04:11:33.673Z,91.76
2023-06-11T04:13:06.786Z,91.77
2023-06-11T04:14:45.136Z,91.74
2023-06-11T04:16:19.742Z,91.46
2023-06-11T04:17:57.920Z,91.31
2023-06-11T04:19:33.659Z,91.58
2023-06-11T04:21:12.393Z,91.39
2023-06-11T04:22:49.347Z,91.47
2023-06-11T04:24:23.977Z,91.43
2023-06-11T04:25:57.153Z,91.51
2023-06-11T04:27:32.767Z,91.26
2023-06-11T04:29:06.953Z,91.53
2023-06-11T04:30:40.921Z,91.13
2023-06-11T04:32:14.126Z,91.28
2023-06-11T04:33:47.404Z,91.21
2023-06-11T04:35:24.299Z,90.97
2023-06-11T04:37:00.460Z,90.93
2023-06-11T04:38:43.122Z,91.00
2023-06-11T04:40:20.231Z,90.71
2023-06-11T04:41:55.869Z,90.73
2023-06-11T04:43:28.978Z,90.48
2023-06-11T04:45:02.548Z,90.46
2023-06-11T04:46:36.049Z,90.72
2023-06-11T04:48:10.878Z,90.61
2023-06-11T04:49:48.953Z,90.67
2023-06-11T04:51:22.402Z,90.46
2023-06-11T04:53:11.962Z,90.52
2023-06-11T04:54:54.755Z,90.43
2023-06-11T04:56:32.125Z,90.43
2023-06-11T04:58:08.317Z,90.35
2023-06-11T04:59:43.970Z,90.13
2023-06-11T05:01:19.443Z,90.42
2023-06-11T05:02:53.015Z,90.15
2023-06-11T05:04:28.393Z,90.28
2023-06-11T05:06:01.875Z,90.53
2023-06-11T05:07:38.936Z,90.33
2023-06-11T05:09:15.241Z,90.62
2023-06-11T05:10:50.389Z,90.47
2023-06-11T05:12:25.923Z,90.17
2023-06-11T05:13:59.871Z,90.07
2023-06-11T05:15:33.391Z,90.15
2023-06-11T05:17:10.775Z,89.93
2023-06-11T05:18:44.043Z,89.73
2023-06-11T05:20:24.790Z,89.13
2023-06-11T05:22:03.925Z,88.90
2023-06-11T05:23:40.766Z,88.36
2023-06-11T05:25:18.399Z,88.02
2023-06-11T05:27:00.016Z,87.67
2023-06-11T05:28:33.624Z,87.61
2023-06-11T05:30:10.451Z,86.95
2023-06-11T05:31:47.297Z,86.88
2023-06-11T05:33:22.086Z,86.56
2023-06-11T05:34:59.614Z,86.34
2023-06-11T05:36:33.980Z,86.20
2023-06-11T05:38:10.287Z,85.86
2023-06-11T05:39:43.566Z,85.72
2023-06-11T05:41:16.713Z,85.83
2023-06-11T05:42:52.767Z,85.28
2023-06-11T05:44:30.108Z,85.24
2023-06-11T05:46:06.456Z,84.93
2023-06-11T05:47:43.416Z,84.52
2023-06-11T05:49:21.006Z,84.47
2023-06-11T05:50:57.659Z,83.40
2023-06-11T05:52:33.998Z,83.72
2023-06-11T05:54:11.418Z,83.59
2023-06-11T05:55:46.880Z,83.61
2023-06-11T05:57:25.913Z,83.40
2023-06-11T05:59:02.901Z,83.36
2023-06-11T06:00:36.250Z,83.14
2023-06-11T06:02:11.949Z,83.26
2023-06-11T06:03:49.564Z,83.48
2023-06-11T06:05:27.711Z,83.62
2023-06-11T06:07:04.380Z,83.73
2023-06-11T06:08:38.914Z,84.03
2023-06-11T06:10:15.160Z,83.75
2023-06-11T06:11:48.479Z,83.41
2023-06-11T06:13:22.952Z,83.34
2023-06-11T06:14:56.681Z,83.34
2023-06-11T06:16:36.355Z,82.91
2023-06-11T06:18:09.743Z,83.33
2023-06-11T06:19:45.160Z,83.35
2023-06-11T06:21:21.929Z,82.91
2023-06-11T06:22:56.087Z,82.73
2023-06-11T06:24:33.245Z,82.47
2023-06-11T06:26:09.992Z,82.29
2023-06-11T06:27:43.400Z,81.90
2023-06-11T06:29:16.612Z,81.52
2023-06-11T06:31:03.458Z,81.26
2023-06-11T06:32:38.118Z,80.81
2023-06-11T06:34:12.766Z,80.73
2023-06-11T06:35:46.501Z,80.42
2023-06-11T06:37:20.256Z,80.33
2023-06-11T06:38:56.379Z,80.24
2023-06-11T06:40:29.945Z,80.15
2023-06-11T06:42:17.193Z,80.34
2023-06-11T06:43:53.969Z,80.65
2023-06-11T06:45:31.102Z,80.56
2023-06-11T06:47:04.845Z,80.20
2023-06-11T06:48:42.613Z,80.03
2023-06-11T06:50:18.036Z,79.55
2023-06-11T06:51:52.193Z,78.67
2023-06-11T06:53:34.989Z,77.94
2023-06-11T06:55:09.719Z,77.88
2023-06-11T06:56:44.516Z,78.08
2023-06-11T06:58:21.860Z,77.77
2023-06-11T07:00:01.123Z,77.57
2023-06-11T07:01:37.927Z,77.12
2023-06-11T07:03:13.460Z,77.01
2023-06-11T07:04:50.323Z,76.00
2023-06-11T07:06:28.911Z,76.31
2023-06-11T07:08:10.847Z,76.38
2023-06-11T07:09:44.351Z,75.55
2023-06-11T07:11:17.715Z,74.75
2023-06-11T07:12:57.188Z,73.33
2023-06-11T07:14:32.947Z,72.67
2023-06-11T07:16:12.549Z,72.24
2023-06-11T07:17:45.952Z,70.78
2023-06-11T07:19:24.976Z,69.87
2023-06-11T07:20:58.273Z,69.71
2023-06-11T07:22:36.687Z,69.25
2023-06-11T07:24:09.939Z,68.42
2023-06-11T07:25:43.302Z,68.19
2023-06-11T07:27:17.988Z,67.42
2023-06-11T07:28:51.290Z,65.83
2023-06-11T07:30:29.081Z,64.84
2023-06-11T07:32:04.890Z,64.77
2023-06-11T07:33:41.332Z,64.69
2023-06-11T07:35:17.783Z,63.51
2023-06-11T07:36:50.960Z,63.40
2023-06-11T07:38:25.830Z,62.50
2023-06-11T07:39:59.235Z,62.53
2023-06-11T07:41:37.466Z,62.42
2023-06-11T07:43:13.117Z,62.65
2023-06-11T07:44:50.490Z,62.11
2023-06-11T07:46:31.248Z,61.83
2023-06-11T07:48:05.471Z,61.73
2023-06-11T07:49:39.672Z,62.28
2023-06-11T07:51:20.033Z,62.69
2023-06-11T07:52:54.728Z,61.61
2023-06-11T07:54:31.335Z,61.14
2023-06-11T07:56:05.690Z,60.68
2023-06-11T07:57:38.933Z,59.30
2023-06-11T07:59:14.948Z,56.97
2023-06-11T08:00:48.890Z,55.39
2023-06-11T08:02:22.544Z,54.22
2023-06-11T08:03:56.328Z,52.63
2023-06-11T08:05:30.005Z,51.06
2023-06-11T08:07:05.080Z,49.32
2023-06-11T08:08:41.736Z,48.51
2023-06-11T08:10:16.019Z,46.61
2023-06-11T08:11:51.395Z,45.86
2023-06-11T08:13:26.286Z,45.11
2023-06-11T08:15:01.260Z,44.59
2023-06-11T08:16:36.063Z,44.70
2023-06-11T08:18:12.347Z,45.86
2023-06-11T08:19:47.677Z,47.50
2023-06-11T08:21:21.018Z,49.05
2023-06-11T08:22:57.538Z,50.67
2023-06-11T08:24:37.123Z,51.20
2023-06-11T08:26:12.247Z,51.89
2023-06-11T08:27:52.696Z,52.02
2023-06-11T08:29:27.674Z,53.62
2023-06-11T08:31:05.263Z,54.43
2023-06-11T08:32:38.900Z,55.45
2023-06-11T08:34:17.125Z,55.64
2023-06-11T08:35:51.865Z,55.59
2023-06-11T08:37:25.762Z,55.76
2023-06-11T08:39:02.025Z,56.01
2023-06-11T08:40:44.706Z,56.35
2023-06-11T08:42:25.328Z,56.27
2023-06-11T08:44:02.438Z,56.03
2023-06-11T08:45:35.840Z,56.38
2023-06-11T08:47:17.798Z,56.20
2023-06-11T08:49:01.970Z,56.05
2023-06-11T08:50:40.058Z,55.82
2023-06-11T08:52:18.456Z,55.74
2023-06-11T08:53:52.740Z,55.60
2023-06-11T08:55:28.990Z,55.68
2023-06-11T08:57:09.971Z,56.07
2023-06-11T08:58:45.297Z,56.48
2023-06-11T09:00:20.651Z,55.80
2023-06-11T09:01:54.165Z,55.47
2023-06-11T09:03:36.318Z,54.61
2023-06-11T09:05:12.651Z,54.56
2023-06-11T09:06:58.434Z,54.87
2023-06-11T09:08:36.789Z,55.10
2023-06-11T09:10:12.308Z,55.39
2023-06-11T09:11:50.195Z,55.54
2023-06-11T09:13:32.164Z,55.47
2023-06-11T09:15:09.512Z,55.67
2023-06-11T09:16:51.378Z,55.75
2023-06-11T09:18:27.457Z,56.08
2023-06-11T09:20:09.485Z,55.90
2023-06-11T09:21:57.927Z,56.14
2023-06-11T09:23:40.437Z,56.77
2023-06-11T09:25:17.832Z,56.65
2023-06-11T09:26:56.913Z,56.55
2023-06-11T09:28:42.197Z,56.83
2023-06-11T09:30:20.971Z,56.90
2023-06-11T09:32:31.603Z,56.13
2023-06-11T09:34:04.660Z,56.75
2023-06-11T09:35:44.805Z,56.69
2023-06-11T09:37:18.056Z,56.49
2023-06-11T09:38:51.293Z,56.12
2023-06-11T09:40:25.744Z,56.20
2023-06-11T09:42:02.247Z,55.83
2023-06-11T09:43:38.979Z,56.11
2023-06-11T09:45:14.883Z,56.23
2023-06-11T09:46:50.364Z,56.14
2023-06-11T09:48:31.291Z,56.08
2023-06-11T09:50:08.046Z,55.55
2023-06-11T09:51:54.709Z,55.65
2023-06-11T09:53:32.537Z,55.72
2023-06-11T09:55:15.168Z,55.63
2023-06-11T09:56:49.137Z,55.74
2023-06-11T09:58:24.813Z,55.50
2023-06-11T09:59:58.174Z,55.33
2023-06-11T10:01:33.865Z,54.74
2023-06-11T10:03:14.103Z,54.54
2023-06-11T10:04:50.028Z,54.37
2023-06-11T10:06:37.385Z,54.67
2023-06-11T10:08:34.416Z,54.46
2023-06-11T10:10:12.773Z,54.04
2023-06-11T10:11:48.721Z,54.11
2023-06-11T10:13:34.633Z,53.56
2023-06-11T10:15:17.345Z,53.21
2023-06-11T10:16:53.063Z,53.21
2023-06-11T10:18:28.110Z,52.97
2023-06-11T10:20:17.162Z,52.63
2023-06-11T10:21:52.087Z,52.56
2023-06-11T10:23:42.116Z,52.82
2023-06-11T10:25:24.508Z,53.07
2023-06-11T10:27:14.852Z,53.10
2023-06-11T10:28:50.135Z,52.98
2023-06-11T10:30:24.515Z,52.93
2023-06-11T10:31:58.143Z,53.13
2023-06-11T10:33:47.686Z,53.13
2023-06-11T10:35:25.593Z,53.02
2023-06-11T10:37:05.180Z,52.77
2023-06-11T10:38:38.975Z,52.52
2023-06-11T10:40:15.959Z,52.44
2023-06-11T10:42:01.874Z,52.72
2023-06-11T10:43:37.885Z,52.90
2023-06-11T10:45:14.340Z,53.08
2023-06-11T10:46:53.898Z,53.25
2023-06-11T10:48:32.133Z,53.18
2023-06-11T10:50:09.410Z,53.04
2023-06-11T10:51:43.560Z,53.19
2023-06-11T10:53:16.920Z,53.05
2023-06-11T10:54:53.055Z,53.21
2023-06-11T10:56:27.459Z,53.46
2023-06-11T10:58:05.151Z,53.69
2023-06-11T10:59:38.976Z,53.60
2023-06-11T11:01:12.664Z,53.09
2023-06-11T11:02:46.989Z,53.00
2023-06-11T11:04:22.581Z,53.08
2023-06-11T11:05:56.069Z,53.01
2023-06-11T11:07:30.377Z,53.18
2023-06-11T11:09:04.406Z,53.37
2023-06-11T11:10:37.645Z,53.42
2023-06-11T11:12:12.420Z,53.16
2023-06-11T11:13:50.204Z,53.25
2023-06-11T11:15:23.901Z,53.04
2023-06-11T11:16:59.044Z,53.04
2023-06-11T11:18:32.388Z,52.40
2023-06-11T11:20:10.394Z,52.42
2023-06-11T11:21:52.051Z,52.09
2023-06-11T11:23:25.628Z,52.05
2023-06-11T11:25:04.563Z,52.13
2023-06-11T11:26:44.716Z,52.16
2023-06-11T11:28:18.979Z,51.73
2023-06-11T11:29:53.714Z,51.99
2023-06-11T11:31:28.097Z,51.39
2023-06-11T11:33:04.230Z,50.99
2023-06-11T11:34:41.555Z,51.16
2023-06-11T11:36:15.295Z,51.41
2023-06-11T11:37:53.076Z,51.59
2023-06-11T11:39:28.572Z,51.68
2023-06-11T11:41:01.941Z,52.06
2023-06-11T11:42:53.447Z,52.47
2023-06-11T11:44:27.118Z,52.38
2023-06-11T11:46:00.709Z,52.49
2023-06-11T11:47:37.666Z,52.46
2023-06-11T11:49:11.514Z,52.09
2023-06-11T11:50:47.079Z,51.38
2023-06-11T11:52:24.629Z,50.87
2023-06-11T11:54:01.489Z,50.13
2023-06-11T11:55:48.433Z,49.92
2023-06-11T11:57:34.308Z,49.94
2023-06-11T11:59:21.789Z,49.45
2023-06-11T12:00:57.282Z,49.65
2023-06-11T12:02:30.853Z,49.54
2023-06-11T12:04:05.050Z,49.29
2023-06-11T12:05:40.015Z,49.52
2023-06-11T12:07:17.593Z,49.20
2023-06-11T12:08:51.062Z,49.15
2023-06-11T12:10:24.304Z,49.23
2023-06-11T12:12:05.191Z,49.25
2023-06-11T12:13:39.356Z,48.98
2023-06-11T12:15:12.541Z,48.81
2023-06-11T12:16:50.071Z,48.83
2023-06-11T12:18:23.913Z,48.73
2023-06-11T12:19:58.476Z,48.10
2023-06-11T12:21:32.061Z,48.04
2023-06-11T12:23:06.012Z,48.09
2023-06-11T12:24:39.334Z,47.81
2023-06-11T12:26:12.775Z,47.53
2023-06-11T12:27:46.288Z,47.47
2023-06-11T12:29:20.066Z,47.54
2023-06-11T12:30:54.859Z,47.67
2023-06-11T12:32:31.474Z,47.37
2023-06-11T12:34:07.347Z,47.39
2023-06-11T12:35:40.659Z,47.80
2023-06-11T12:37:18.477Z,47.25
2023-06-11T12:38:52.114Z,47.37
2023-06-11T12:40:26.001Z,46.96
2023-06-11T12:42:00.018Z,47.12
2023-06-11T12:43:33.572Z,47.30
2023-06-11T12:45:10.331Z,47.41
2023-06-11T12:46:43.896Z,47.24
2023-06-11T12:48:17.558Z,47.31
2023-06-11T12:49:51.017Z,47.73
2023-06-11T12:51:28.399Z,47.58
2023-06-11T12:53:01.716Z,47.54
2023-06-11T12:54:35.272Z,47.12
2023-06-11T12:56:08.524Z,46.83
2023-06-11T12:57:42.676Z,47.12
2023-06-11T12:59:16.163Z,46.75
2023-06-11T13:00:49.964Z,46.45
2023-06-11T13:02:23.427Z,46.76
2023-06-11T13:03:57.534Z,46.80
2023-06-11T13:05:31.322Z,46.91
2023-06-11T13:07:05.407Z,46.87
2023-06-11T13:08:39.421Z,47.02
2023-06-11T13:10:12.893Z,47.33
2023-06-11T13:11:51.880Z,46.69
2023-06-11T13:13:25.384Z,47.07
2023-06-11T13:14:59.275Z,46.96
2023-06-11T13:16:32.781Z,46.66
2023-06-11T13:18:06.224Z,46.54
2023-06-11T13:19:39.439Z,46.21
2023-06-11T13:21:13.285Z,46.37
2023-06-11T13:22:49.499Z,46.19
2023-06-11T13:24:22.698Z,45.56
2023-06-11T13:25:59.953Z,45.34
2023-06-11T13:27:33.323Z,45.32
2023-06-11T13:29:06.889Z,45.17
2023-06-11T13:30:45.478Z,44.03
2023-06-11T13:32:18.931Z,43.36
2023-06-11T13:33:52.507Z,43.30
2023-06-11T13:35:26.351Z,43.38
2023-06-11T13:37:00.450Z,43.69
2023-06-11T13:38:35.007Z,43.96
2023-06-11T13:40:11.724Z,43.75
2023-06-11T13:41:46.480Z,43.35
2023-06-11T13:43:23.962Z,43.84
2023-06-11T13:44:57.347Z,43.74
2023-06-11T13:46:32.108Z,43.82
2023-06-11T13:48:14.401Z,43.91
2023-06-11T13:49:47.990Z,44.13
2023-06-11T13:51:21.644Z,43.85
2023-06-11T13:52:54.894Z,44.01
2023-06-11T13:54:28.645Z,43.85
2023-06-11T13:56:01.896Z,43.16
2023-06-11T13:57:35.861Z,43.39
2023-06-11T13:59:09.036Z,43.33
2023-06-11T14:00:43.872Z,43.50
2023-06-11T14:02:17.722Z,43.25
2023-06-11T14:03:51.319Z,43.09
2023-06-11T14:05:27.370Z,42.96
2023-06-11T14:07:01.761Z,43.08
2023-06-11T14:08:36.486Z,43.30
2023-06-11T14:10:11.236Z,43.22
2023-06-11T14:11:44.957Z,42.89
2023-06-11T14:13:18.285Z,42.89
2023-06-11T14:14:54.196Z,43.05
2023-06-11T14:16:30.210Z,42.16
2023-06-11T14:18:03.880Z,42.21
2023-06-11T14:19:37.092Z,42.13
2023-06-11T14:21:10.928Z,41.78
2023-06-11T14:22:47.394Z,41.89
2023-06-11T14:24:24.396Z,41.74
2023-06-11T14:25:58.508Z,41.97
2023-06-11T14:27:33.242Z,42.39
2023-06-11T14:29:06.593Z,42.64
2023-06-11T14:30:41.139Z,42.99
2023-06-11T14:32:15.428Z,42.92
2023-06-11T14:33:48.682Z,43.19
2023-06-11T14:35:25.342Z,43.47
2023-06-11T14:36:58.572Z,43.77
2023-06-11T14:38:33.901Z,43.14
2023-06-11T14:40:08.417Z,43.11
2023-06-11T14:41:42.481Z,42.59
2023-06-11T14:43:19.282Z,41.92
2023-06-11T14:44:52.566Z,42.47
2023-06-11T14:46:26.868Z,41.82
2023-06-11T14:48:00.994Z,41.67
2023-06-11T14:49:34.393Z,41.98
2023-06-11T14:51:10.791Z,41.63
2023-06-11T14:52:44.771Z,41.77
2023-06-11T14:54:19.535Z,41.17
2023-06-11T14:55:53.056Z,41.46
2023-06-11T14:57:26.797Z,41.25
2023-06-11T14:59:00.720Z,41.58
2023-06-11T15:00:34.363Z,41.62
2023-06-11T15:02:08.179Z,41.76
2023-06-11T15:03:41.625Z,41.29
2023-06-11T15:05:14.874Z,41.44
2023-06-11T15:06:48.056Z,41.08
2023-06-11T15:08:21.669Z,40.70
2023-06-11T15:09:55.165Z,40.72
2023-06-11T15:11:31.660Z,40.51
2023-06-11T15:13:14.462Z,40.88
2023-06-11T15:14:50.927Z,40.53
2023-06-11T15:16:24.893Z,41.11
2023-06-11T15:17:58.574Z,40.78
2023-06-11T15:19:35.108Z,40.93
2023-06-11T15:21:08.905Z,41.27
2023-06-11T15:22:42.302Z,41.44
2023-06-11T15:24:15.639Z,41.36
2023-06-11T15:25:53.093Z,41.18
2023-06-11T15:27:26.771Z,41.51
2023-06-11T15:29:07.600Z,41.29
2023-06-11T15:30:45.640Z,41.25
2023-06-11T15:32:19.081Z,41.80
2023-06-11T15:33:52.746Z,41.97
2023-06-11T15:35:26.327Z,42.55
2023-06-11T15:36:59.770Z,42.93
2023-06-11T15:38:36.687Z,43.32
2023-06-11T15:40:11.147Z,43.56
2023-06-11T15:41:45.141Z,43.93
2023-06-11T15:43:18.421Z,44.39
2023-06-11T15:44:51.968Z,44.85
2023-06-11T15:46:26.363Z,45.01
2023-06-11T15:48:02.708Z,45.34
2023-06-11T15:49:36.097Z,45.21
2023-06-11T15:51:09.454Z,45.11
2023-06-11T15:52:42.805Z,45.28
2023-06-11T15:54:16.155Z,45.00
2023-06-11T15:55:49.450Z,44.64
2023-06-11T15:57:22.866Z,44.44
2023-06-11T15:58:56.053Z,44.53
2023-06-11T16:00:29.870Z,44.24
2023-06-11T16:02:09.953Z,44.54
2023-06-11T16:03:47.265Z,44.83
2023-06-11T16:05:21.626Z,45.24
2023-06-11T16:06:56.088Z,45.50
2023-06-11T16:08:34.009Z,45.68
2023-06-11T16:10:08.669Z,45.87
2023-06-11T16:11:43.747Z,45.91
2023-06-11T16:13:17.866Z,46.14
2023-06-11T16:14:51.590Z,45.72
2023-06-11T16:16:26.074Z,45.94
2023-06-11T16:18:04.000Z,45.92
2023-06-11T16:19:38.516Z,45.74
2023-06-11T16:21:11.890Z,45.47
2023-06-11T16:22:45.912Z,45.57
2023-06-11T16:24:20.841Z,45.55
2023-06-11T16:25:55.406Z,45.39
2023-06-11T16:27:29.554Z,45.23
2023-06-11T16:29:04.956Z,45.49
2023-06-11T16:30:41.226Z,45.09
2023-06-11T16:32:15.138Z,45.12
2023-06-11T16:33:57.221Z,45.24
2023-06-11T16:35:32.513Z,45.45
2023-06-11T16:37:06.658Z,45.76
2023-06-11T16:38:39.861Z,46.16
2023-06-11T16:40:13.241Z,46.14
2023-06-11T16:41:46.518Z,46.13
2023-06-11T16:43:20.838Z,46.78
2023-06-11T16:44:54.386Z,46.90
2023-06-11T16:46:28.569Z,46.55
2023-06-11T16:48:01.986Z,47.04
2023-06-11T16:49:35.511Z,47.03
2023-06-11T16:51:11.936Z,46.88
2023-06-11T16:52:45.165Z,46.88
2023-06-11T16:54:20.858Z,47.02
2023-06-11T16:55:55.141Z,47.14
2023-06-11T16:57:30.468Z,46.70
2023-06-11T16:59:07.360Z,46.77
2023-06-11T17:00:41.009Z,47.11
2023-06-11T17:02:15.263Z,47.00
2023-06-11T17:03:49.175Z,47.42
2023-06-11T17:05:29.361Z,47.18
2023-06-11T17:07:02.605Z,47.28
2023-06-11T17:08:36.623Z,47.56
2023-06-11T17:10:13.635Z,47.59
2023-06-11T17:11:47.518Z,48.07
2023-06-11T17:13:21.303Z,48.37
2023-06-11T17:14:57.588Z,48.89
2023-06-11T17:16:31.366Z,49.51
2023-06-11T17:18:11.878Z,50.23
2023-06-11T17:19:46.260Z,50.76
2023-06-11T17:21:20.333Z,51.18
2023-06-11T17:22:53.822Z,51.57
2023-06-11T17:24:33.502Z,52.13
2023-06-11T17:26:17.757Z,52.77
2023-06-11T17:27:53.883Z,52.80
2023-06-11T17:29:31.890Z,52.96
2023-06-11T17:31:08.689Z,53.53
2023-06-11T17:32:48.364Z,53.97
2023-06-11T17:34:27.276Z,54.29
2023-06-11T17:36:00.728Z,54.74
2023-06-11T17:37:35.670Z,55.21
2023-06-11T17:39:09.502Z,55.49
2023-06-11T17:40:43.493Z,55.80
2023-06-11T17:42:20.135Z,56.17
2023-06-11T17:43:54.033Z,56.46
2023-06-11T17:45:29.586Z,56.54
2023-06-11T17:47:03.409Z,56.78
2023-06-11T17:48:39.907Z,57.38
2023-06-11T17:50:15.568Z,57.58
2023-06-11T17:51:53.972Z,57.77
2023-06-11T17:53:34.114Z,57.92
2023-06-11T17:55:12.841Z,58.35
2023-06-11T17:56:51.400Z,58.52
2023-06-11T17:58:29.433Z,58.72
2023-06-11T18:00:04.065Z,58.79
2023-06-11T18:01:37.370Z,58.77
2023-06-11T18:03:11.219Z,58.61
2023-06-11T18:04:44.709Z,58.79
2023-06-11T18:06:19.170Z,58.86
2023-06-11T18:07:52.386Z,58.98
2023-06-11T18:09:28.674Z,59.15
2023-06-11T18:11:02.154Z,59.04
2023-06-11T18:12:35.901Z,58.91
2023-06-11T18:14:09.546Z,59.02
2023-06-11T18:15:43.269Z,59.10
2023-06-11T18:17:19.575Z,59.31
2023-06-11T18:18:53.392Z,59.33
2023-06-11T18:20:27.240Z,59.60
2023-06-11T18:22:00.749Z,59.72
2023-06-11T18:23:37.369Z,59.98
2023-06-11T18:25:14.161Z,60.33
2023-06-11T18:26:47.449Z,60.45
2023-06-11T18:28:25.600Z,60.55
2023-06-11T18:30:03.444Z,60.64
2023-06-11T18:31:38.457Z,60.65
2023-06-11T18:33:11.866Z,61.13
2023-06-11T18:34:47.402Z,61.47
2023-06-11T18:36:21.573Z,61.61
2023-06-11T18:37:55.161Z,61.57
2023-06-11T18:39:28.753Z,61.83
2023-06-11T18:41:02.814Z,61.80
2023-06-11T18:42:39.498Z,61.98
2023-06-11T18:44:12.620Z,62.24
2023-06-11T18:45:46.244Z,62.19
2023-06-11T18:47:20.065Z,62.45
2023-06-11T18:48:56.118Z,62.32
2023-06-11T18:50:30.165Z,62.68
2023-06-11T18:52:03.591Z,62.65
2023-06-11T18:53:36.716Z,62.66
2023-06-11T18:55:10.333Z,62.76
2023-06-11T18:56:43.463Z,62.72
2023-06-11T18:58:18.420Z,62.65
2023-06-11T18:59:52.467Z,62.83
2023-06-11T19:01:26.238Z,62.66
2023-06-11T19:03:00.111Z,62.64
2023-06-11T19:04:33.518Z,62.83
2023-06-11T19:06:06.837Z,62.78
2023-06-11T19:07:41.282Z,62.87
2023-06-11T19:09:14.703Z,62.85
2023-06-11T19:10:49.289Z,62.96
2023-06-11T19:12:22.813Z,62.96
2023-06-11T19:13:56.164Z,62.71
2023-06-11T19:15:29.534Z,62.68
2023-06-11T19:17:02.926Z,62.82
2023-06-11T19:18:43.847Z,62.86
2023-06-11T19:20:17.178Z,62.92
2023-06-11T19:21:53.155Z,63.00
2023-06-11T19:23:28.808Z,63.17
2023-06-11T19:25:02.830Z,63.29
2023-06-11T19:26:36.585Z,63.38
2023-06-11T19:28:10.222Z,63.25
2023-06-11T19:29:44.060Z,63.48
2023-06-11T19:31:18.211Z,63.68
2023-06-11T19:32:52.400Z,63.89
2023-06-11T19:34:26.084Z,63.95
2023-06-11T19:36:00.488Z,64.25
2023-06-11T19:37:36.522Z,64.57
2023-06-11T19:39:10.374Z,64.73
2023-06-11T19:40:44.124Z,64.78
2023-06-11T19:42:18.481Z,64.90
2023-06-11T19:43:51.989Z,64.95
2023-06-11T19:45:26.035Z,65.04
2023-06-11T19:47:00.269Z,64.96
2023-06-11T19:48:36.899Z,65.29
2023-06-11T19:50:11.018Z,65.09
2023-06-11T19:51:44.713Z,65.28
2023-06-11T19:53:18.133Z,65.09
2023-06-11T19:54:52.271Z,65.21
2023-06-11T19:56:25.826Z,65.46
2023-06-11T19:57:59.039Z,65.50
2023-06-11T19:59:32.250Z,65.73
2023-06-11T20:01:05.526Z,65.90
2023-06-11T20:02:40.113Z,65.95
2023-06-11T20:04:13.604Z,66.21
2023-06-11T20:05:47.885Z,66.28
2023-06-11T20:07:23.445Z,66.34
2023-06-11T20:08:57.262Z,66.59
2023-06-11T20:10:30.910Z,66.69
2023-06-11T20:12:05.006Z,66.74
2023-06-11T20:13:46.264Z,67.02
2023-06-11T20:15:20.306Z,67.09
2023-06-11T20:16:53.945Z,67.18
2023-06-11T20:18:27.328Z,67.31
2023-06-11T20:20:03.743Z,67.37
2023-06-11T20:21:40.200Z,67.70
2023-06-11T20:23:14.485Z,67.58
2023-06-11T20:24:48.043Z,67.88
2023-06-11T20:26:21.148Z,67.76
2023-06-11T20:27:54.980Z,67.72
2023-06-11T20:29:28.724Z,67.86
2023-06-11T20:31:04.801Z,68.00
2023-06-11T20:32:38.307Z,68.32
2023-06-11T20:34:11.723Z,68.41
2023-06-11T20:35:45.536Z,68.62
2023-06-11T20:37:20.974Z,68.62
2023-06-11T20:38:54.354Z,69.40
2023-06-11T20:40:27.856Z,69.34